sensor_id;sensor_type;location;lat;lon;timestamp;P1;durP1;ratioP1;P2;durP2;ratioP2
1991;SDS011;997;48.448;8.924;2022-12-18T10:00:53;37.93;;;25.60;;
1991;SDS011;997;48.448;8.924;2022-12-18T10:03:20;43.73;;;29.13;;
1991;SDS011;997;48.448;8.924;2022-12-18T10:06:03;40.33;;;28.90;;
1991;SDS011;997;48.448;8.924;2022-12-18T10:08:49;33.67;;;25.53;;
1991;SDS011;997;48.448;8.924;2022-12-18T10:11:34;34.90;;;26.30;;
1991;SDS011;997;48.448;8.924;2022-12-18T10:22:28;43.17;;;31.87;;
1991;SDS011;997;48.448;8.924;2022-12-18T10:27:30;49.33;;;33.13;;
1991;SDS011;997;48.448;8.924;2022-12-18T10:29:56;38.17;;;30.90;;
1991;SDS011;997;48.448;8.924;2022-12-18T10:32:24;33.73;;;24.70;;
1991;SDS011;997;48.448;8.924;2022-12-18T10:34:53;30.07;;;24.13;;
1991;SDS011;997;48.448;8.924;2022-12-18T10:37:25;43.37;;;31.30;;
1991;SDS011;997;48.448;8.924;2022-12-18T10:42:33;45.40;;;31.77;;
1991;SDS011;997;48.448;8.924;2022-12-18T10:45:08;37.73;;;30.13;;
1991;SDS011;997;48.448;8.924;2022-12-18T10:47:36;51.63;;;32.97;;
1991;SDS011;997;48.448;8.924;2022-12-18T10:50:19;50.63;;;36.53;;
1991;SDS011;997;48.448;8.924;2022-12-18T10:53:03;54.60;;;33.57;;
1991;SDS011;997;48.448;8.924;2022-12-18T10:55:34;49.70;;;32.40;;
1991;SDS011;997;48.448;8.924;2022-12-18T10:58:13;50.63;;;33.07;;
1991;SDS011;997;48.448;8.924;2022-12-18T11:01:02;44.23;;;29.97;;
1991;SDS011;997;48.448;8.924;2022-12-18T11:03:35;35.40;;;28.03;;
1991;SDS011;997;48.448;8.924;2022-12-18T11:06:15;37.07;;;25.47;;
1991;SDS011;997;48.448;8.924;2022-12-18T11:08:43;34.67;;;26.00;;
1991;SDS011;997;48.448;8.924;2022-12-18T11:11:23;51.77;;;35.37;;
1991;SDS011;997;48.448;8.924;2022-12-18T11:13:52;39.37;;;29.57;;
1991;SDS011;997;48.448;8.924;2022-12-18T11:16:30;40.30;;;27.13;;
1991;SDS011;997;48.448;8.924;2022-12-18T11:22:00;38.83;;;23.30;;
1991;SDS011;997;48.448;8.924;2022-12-18T11:24:30;33.80;;;25.83;;
1991;SDS011;997;48.448;8.924;2022-12-18T11:26:58;37.83;;;31.97;;
1991;SDS011;997;48.448;8.924;2022-12-18T11:29:31;43.50;;;32.93;;
1991;SDS011;997;48.448;8.924;2022-12-18T11:34:39;35.47;;;30.13;;
1991;SDS011;997;48.448;8.924;2022-12-18T11:37:07;40.47;;;29.70;;
1991;SDS011;997;48.448;8.924;2022-12-18T11:39:37;34.13;;;27.90;;
1991;SDS011;997;48.448;8.924;2022-12-18T11:42:15;35.77;;;25.67;;
1991;SDS011;997;48.448;8.924;2022-12-18T11:50:16;27.30;;;18.67;;
1991;SDS011;997;48.448;8.924;2022-12-18T11:52:45;23.97;;;18.17;;
1991;SDS011;997;48.448;8.924;2022-12-18T11:55:13;26.87;;;19.63;;
1991;SDS011;997;48.448;8.924;2022-12-18T11:57:55;21.20;;;16.43;;
1991;SDS011;997;48.448;8.924;2022-12-18T12:00:26;25.53;;;17.90;;
1991;SDS011;997;48.448;8.924;2022-12-18T12:05:48;34.80;;;27.13;;
1991;SDS011;997;48.448;8.924;2022-12-18T12:08:29;23.60;;;17.07;;
1991;SDS011;997;48.448;8.924;2022-12-18T12:14:08;36.07;;;22.70;;
1991;SDS011;997;48.448;8.924;2022-12-18T12:16:53;49.63;;;33.97;;
1991;SDS011;997;48.448;8.924;2022-12-18T12:25:40;19.53;;;14.30;;
1991;SDS011;997;48.448;8.924;2022-12-18T12:36:34;56.60;;;40.20;;
1991;SDS011;997;48.448;8.924;2022-12-18T12:39:07;43.00;;;35.90;;
1991;SDS011;997;48.448;8.924;2022-12-18T12:41:37;43.23;;;34.03;;
1991;SDS011;997;48.448;8.924;2022-12-18T12:44:26;26.50;;;21.60;;
1991;SDS011;997;48.448;8.924;2022-12-18T12:50:13;43.80;;;32.77;;
1991;SDS011;997;48.448;8.924;2022-12-18T12:52:50;41.47;;;31.47;;
1991;SDS011;997;48.448;8.924;2022-12-18T12:55:19;39.23;;;29.00;;
1991;SDS011;997;48.448;8.924;2022-12-18T12:57:51;44.63;;;31.87;;
1991;SDS011;997;48.448;8.924;2022-12-18T13:00:19;44.97;;;35.93;;
1991;SDS011;997;48.448;8.924;2022-12-18T13:08:09;40.70;;;30.57;;
1991;SDS011;997;48.448;8.924;2022-12-18T13:20:35;38.83;;;27.47;;
1991;SDS011;997;48.448;8.924;2022-12-18T13:25:50;25.70;;;19.17;;
1991;SDS011;997;48.448;8.924;2022-12-18T13:31:11;30.50;;;21.13;;
1991;SDS011;997;48.448;8.924;2022-12-18T13:34:16;22.23;;;19.90;;
1991;SDS011;997;48.448;8.924;2022-12-18T13:36:50;24.83;;;19.77;;
1991;SDS011;997;48.448;8.924;2022-12-18T13:41:51;24.30;;;19.50;;
1991;SDS011;997;48.448;8.924;2022-12-18T13:44:35;26.80;;;21.00;;
1991;SDS011;997;48.448;8.924;2022-12-18T13:47:05;28.40;;;22.50;;
1991;SDS011;997;48.448;8.924;2022-12-18T13:49:57;26.07;;;21.77;;
1991;SDS011;997;48.448;8.924;2022-12-18T13:52:33;23.07;;;20.50;;
1991;SDS011;997;48.448;8.924;2022-12-18T13:55:03;30.50;;;22.10;;
1991;SDS011;997;48.448;8.924;2022-12-18T13:57:36;31.67;;;25.07;;
1991;SDS011;997;48.448;8.924;2022-12-18T14:00:30;38.90;;;30.00;;
1991;SDS011;997;48.448;8.924;2022-12-18T14:02:57;51.13;;;32.07;;
1991;SDS011;997;48.448;8.924;2022-12-18T14:07:51;50.13;;;41.53;;
1991;SDS011;997;48.448;8.924;2022-12-18T14:10:17;82.90;;;59.10;;
1991;SDS011;997;48.448;8.924;2022-12-18T14:12:45;74.57;;;57.37;;
1991;SDS011;997;48.448;8.924;2022-12-18T14:17:58;49.53;;;38.33;;
1991;SDS011;997;48.448;8.924;2022-12-18T14:20:29;38.43;;;27.50;;
1991;SDS011;997;48.448;8.924;2022-12-18T14:22:57;37.83;;;27.73;;
1991;SDS011;997;48.448;8.924;2022-12-18T14:25:24;35.13;;;28.17;;
1991;SDS011;997;48.448;8.924;2022-12-18T14:30:34;59.83;;;40.30;;
1991;SDS011;997;48.448;8.924;2022-12-18T14:33:12;60.57;;;41.60;;
1991;SDS011;997;48.448;8.924;2022-12-18T14:40:41;42.73;;;32.17;;
1991;SDS011;997;48.448;8.924;2022-12-18T14:43:11;41.77;;;30.63;;
1991;SDS011;997;48.448;8.924;2022-12-18T14:45:43;45.53;;;33.97;;
1991;SDS011;997;48.448;8.924;2022-12-18T14:50:36;46.33;;;36.97;;
1991;SDS011;997;48.448;8.924;2022-12-18T14:53:03;37.63;;;29.70;;
1991;SDS011;997;48.448;8.924;2022-12-18T14:55:29;43.03;;;32.07;;
1991;SDS011;997;48.448;8.924;2022-12-18T14:57:56;49.50;;;38.17;;
1991;SDS011;997;48.448;8.924;2022-12-18T15:00:23;47.70;;;38.33;;
1991;SDS011;997;48.448;8.924;2022-12-18T15:02:54;48.37;;;37.60;;
1991;SDS011;997;48.448;8.924;2022-12-18T15:05:28;43.43;;;32.43;;
1991;SDS011;997;48.448;8.924;2022-12-18T15:07:56;43.70;;;31.90;;
1991;SDS011;997;48.448;8.924;2022-12-18T15:10:24;44.37;;;31.20;;
1991;SDS011;997;48.448;8.924;2022-12-18T15:18:01;38.93;;;27.67;;
1991;SDS011;997;48.448;8.924;2022-12-18T15:23:18;38.90;;;26.63;;
1991;SDS011;997;48.448;8.924;2022-12-18T15:26:11;36.40;;;27.30;;
1991;SDS011;997;48.448;8.924;2022-12-18T15:28:55;38.20;;;26.10;;
1991;SDS011;997;48.448;8.924;2022-12-18T15:31:32;32.33;;;24.93;;
1991;SDS011;997;48.448;8.924;2022-12-18T15:34:01;35.23;;;26.27;;
1991;SDS011;997;48.448;8.924;2022-12-18T15:36:35;37.33;;;28.60;;
1991;SDS011;997;48.448;8.924;2022-12-18T15:39:02;36.97;;;26.93;;
1991;SDS011;997;48.448;8.924;2022-12-18T15:41:30;49.57;;;37.30;;
1991;SDS011;997;48.448;8.924;2022-12-18T15:44:00;73.83;;;49.30;;
1991;SDS011;997;48.448;8.924;2022-12-18T15:46:25;99.07;;;67.50;;
1991;SDS011;997;48.448;8.924;2022-12-18T15:48:55;66.73;;;48.40;;
1991;SDS011;997;48.448;8.924;2022-12-18T15:51:32;66.60;;;50.73;;
1991;SDS011;997;48.448;8.924;2022-12-18T15:54:01;58.30;;;45.00;;
1991;SDS011;997;48.448;8.924;2022-12-18T15:56:29;69.93;;;51.37;;
1991;SDS011;997;48.448;8.924;2022-12-18T15:59:14;60.80;;;45.67;;
1991;SDS011;997;48.448;8.924;2022-12-18T16:01:48;63.57;;;46.80;;
1991;SDS011;997;48.448;8.924;2022-12-18T16:04:16;59.03;;;43.87;;
1991;SDS011;997;48.448;8.924;2022-12-18T16:06:45;66.13;;;46.47;;
1991;SDS011;997;48.448;8.924;2022-12-18T16:09:12;51.57;;;41.80;;
1991;SDS011;997;48.448;8.924;2022-12-18T16:11:38;55.50;;;42.33;;
1991;SDS011;997;48.448;8.924;2022-12-18T16:14:23;54.87;;;42.40;;
1991;SDS011;997;48.448;8.924;2022-12-18T16:17:03;58.37;;;45.47;;
1991;SDS011;997;48.448;8.924;2022-12-18T16:19:33;54.50;;;40.70;;
1991;SDS011;997;48.448;8.924;2022-12-18T16:21:59;57.47;;;46.27;;
1991;SDS011;997;48.448;8.924;2022-12-18T16:24:29;61.63;;;45.80;;
1991;SDS011;997;48.448;8.924;2022-12-18T16:26:58;68.20;;;48.07;;
1991;SDS011;997;48.448;8.924;2022-12-18T16:29:26;69.37;;;52.77;;
1991;SDS011;997;48.448;8.924;2022-12-18T16:31:56;71.80;;;55.97;;
1991;SDS011;997;48.448;8.924;2022-12-18T16:34:27;81.40;;;55.97;;
1991;SDS011;997;48.448;8.924;2022-12-18T16:37:04;68.37;;;55.60;;
1991;SDS011;997;48.448;8.924;2022-12-18T16:39:32;71.50;;;54.77;;
1991;SDS011;997;48.448;8.924;2022-12-18T16:41:59;71.57;;;50.80;;
1991;SDS011;997;48.448;8.924;2022-12-18T16:44:25;62.30;;;47.43;;
1991;SDS011;997;48.448;8.924;2022-12-18T16:46:51;54.70;;;41.43;;
1991;SDS011;997;48.448;8.924;2022-12-18T16:49:17;62.90;;;46.70;;
1991;SDS011;997;48.448;8.924;2022-12-18T16:51:45;64.17;;;48.40;;
1991;SDS011;997;48.448;8.924;2022-12-18T16:54:11;67.33;;;48.00;;
1991;SDS011;997;48.448;8.924;2022-12-18T16:56:37;56.97;;;42.40;;
1991;SDS011;997;48.448;8.924;2022-12-18T16:59:03;52.03;;;42.87;;
1991;SDS011;997;48.448;8.924;2022-12-18T17:01:29;60.83;;;42.40;;
1991;SDS011;997;48.448;8.924;2022-12-18T17:03:57;58.73;;;41.93;;
1991;SDS011;997;48.448;8.924;2022-12-18T17:06:25;50.20;;;37.17;;
1991;SDS011;997;48.448;8.924;2022-12-18T17:08:56;52.93;;;39.70;;
1991;SDS011;997;48.448;8.924;2022-12-18T17:11:26;51.03;;;39.00;;
1991;SDS011;997;48.448;8.924;2022-12-18T17:13:53;50.37;;;38.30;;
1991;SDS011;997;48.448;8.924;2022-12-18T17:16:19;50.37;;;36.17;;
1991;SDS011;997;48.448;8.924;2022-12-18T17:18:45;51.77;;;38.83;;
1991;SDS011;997;48.448;8.924;2022-12-18T17:21:11;48.03;;;36.30;;
1991;SDS011;997;48.448;8.924;2022-12-18T17:23:39;49.43;;;38.10;;
1991;SDS011;997;48.448;8.924;2022-12-18T17:26:05;52.77;;;43.00;;
1991;SDS011;997;48.448;8.924;2022-12-18T17:28:32;53.87;;;42.17;;
1991;SDS011;997;48.448;8.924;2022-12-18T17:30:59;55.00;;;42.17;;
1991;SDS011;997;48.448;8.924;2022-12-18T17:33:25;51.83;;;38.30;;
1991;SDS011;997;48.448;8.924;2022-12-18T17:35:51;47.90;;;37.43;;
1991;SDS011;997;48.448;8.924;2022-12-18T17:38:17;87.17;;;51.93;;
1991;SDS011;997;48.448;8.924;2022-12-18T17:40:43;102.63;;;63.00;;
1991;SDS011;997;48.448;8.924;2022-12-18T17:43:09;50.00;;;36.37;;
1991;SDS011;997;48.448;8.924;2022-12-18T17:45:36;46.37;;;35.10;;
1991;SDS011;997;48.448;8.924;2022-12-18T17:48:02;41.37;;;30.90;;
1991;SDS011;997;48.448;8.924;2022-12-18T17:50:29;43.70;;;32.60;;
1991;SDS011;997;48.448;8.924;2022-12-18T17:52:56;43.50;;;34.47;;
1991;SDS011;997;48.448;8.924;2022-12-18T17:55:22;50.57;;;39.53;;
1991;SDS011;997;48.448;8.924;2022-12-18T17:57:48;43.20;;;35.50;;
1991;SDS011;997;48.448;8.924;2022-12-18T18:00:14;49.23;;;41.00;;
1991;SDS011;997;48.448;8.924;2022-12-18T18:02:40;54.07;;;42.13;;
1991;SDS011;997;48.448;8.924;2022-12-18T18:05:06;61.10;;;45.03;;
1991;SDS011;997;48.448;8.924;2022-12-18T18:07:32;46.93;;;40.57;;
1991;SDS011;997;48.448;8.924;2022-12-18T18:09:58;43.00;;;33.40;;
1991;SDS011;997;48.448;8.924;2022-12-18T18:12:23;39.73;;;30.80;;
1991;SDS011;997;48.448;8.924;2022-12-18T18:15:07;57.43;;;37.53;;
1991;SDS011;997;48.448;8.924;2022-12-18T18:17:33;47.53;;;38.50;;
1991;SDS011;997;48.448;8.924;2022-12-18T18:19:59;54.67;;;40.50;;
1991;SDS011;997;48.448;8.924;2022-12-18T18:22:25;49.90;;;36.53;;
1991;SDS011;997;48.448;8.924;2022-12-18T18:24:50;37.20;;;31.67;;
1991;SDS011;997;48.448;8.924;2022-12-18T18:27:16;39.80;;;28.30;;
1991;SDS011;997;48.448;8.924;2022-12-18T18:29:42;36.03;;;28.03;;
1991;SDS011;997;48.448;8.924;2022-12-18T18:32:08;48.30;;;31.20;;
1991;SDS011;997;48.448;8.924;2022-12-18T18:34:34;45.33;;;34.57;;
1991;SDS011;997;48.448;8.924;2022-12-18T18:37:00;45.50;;;36.67;;
1991;SDS011;997;48.448;8.924;2022-12-18T18:39:26;41.10;;;32.13;;
1991;SDS011;997;48.448;8.924;2022-12-18T18:41:52;40.40;;;32.80;;
1991;SDS011;997;48.448;8.924;2022-12-18T18:44:19;46.73;;;35.20;;
1991;SDS011;997;48.448;8.924;2022-12-18T18:46:45;43.50;;;33.17;;
1991;SDS011;997;48.448;8.924;2022-12-18T18:49:12;53.17;;;33.67;;
1991;SDS011;997;48.448;8.924;2022-12-18T18:51:39;47.20;;;33.63;;
1991;SDS011;997;48.448;8.924;2022-12-18T18:54:05;56.63;;;38.97;;
1991;SDS011;997;48.448;8.924;2022-12-18T18:56:31;62.33;;;48.27;;
1991;SDS011;997;48.448;8.924;2022-12-18T18:58:57;65.27;;;47.70;;
1991;SDS011;997;48.448;8.924;2022-12-18T19:01:23;62.33;;;51.73;;
1991;SDS011;997;48.448;8.924;2022-12-18T19:03:50;64.90;;;49.00;;
1991;SDS011;997;48.448;8.924;2022-12-18T19:06:18;57.40;;;44.37;;
1991;SDS011;997;48.448;8.924;2022-12-18T19:08:45;64.50;;;47.83;;
1991;SDS011;997;48.448;8.924;2022-12-18T19:11:12;51.27;;;42.63;;
1991;SDS011;997;48.448;8.924;2022-12-18T19:13:57;49.13;;;39.87;;
1991;SDS011;997;48.448;8.924;2022-12-18T19:16:24;43.93;;;37.67;;
1991;SDS011;997;48.448;8.924;2022-12-18T19:18:50;46.47;;;36.80;;
1991;SDS011;997;48.448;8.924;2022-12-18T19:21:19;57.47;;;45.00;;
1991;SDS011;997;48.448;8.924;2022-12-18T19:23:45;48.60;;;38.47;;
1991;SDS011;997;48.448;8.924;2022-12-18T19:26:11;50.77;;;41.90;;
1991;SDS011;997;48.448;8.924;2022-12-18T19:28:37;53.70;;;41.30;;
1991;SDS011;997;48.448;8.924;2022-12-18T19:31:05;52.73;;;36.20;;
1991;SDS011;997;48.448;8.924;2022-12-18T19:33:33;46.47;;;36.77;;
1991;SDS011;997;48.448;8.924;2022-12-18T19:36:00;64.40;;;39.20;;
1991;SDS011;997;48.448;8.924;2022-12-18T19:38:39;59.80;;;38.03;;
1991;SDS011;997;48.448;8.924;2022-12-18T19:41:05;48.20;;;31.63;;
1991;SDS011;997;48.448;8.924;2022-12-18T19:43:32;48.83;;;31.27;;
1991;SDS011;997;48.448;8.924;2022-12-18T19:46:00;42.50;;;32.50;;
1991;SDS011;997;48.448;8.924;2022-12-18T19:48:26;50.17;;;34.97;;
1991;SDS011;997;48.448;8.924;2022-12-18T19:50:52;43.97;;;34.40;;
1991;SDS011;997;48.448;8.924;2022-12-18T19:53:18;61.47;;;46.50;;
1991;SDS011;997;48.448;8.924;2022-12-18T19:55:44;49.83;;;39.07;;
1991;SDS011;997;48.448;8.924;2022-12-18T19:58:09;53.80;;;42.50;;
1991;SDS011;997;48.448;8.924;2022-12-18T20:00:35;60.20;;;44.67;;
1991;SDS011;997;48.448;8.924;2022-12-18T20:03:01;65.23;;;53.10;;
1991;SDS011;997;48.448;8.924;2022-12-18T20:05:27;67.63;;;50.17;;
1991;SDS011;997;48.448;8.924;2022-12-18T20:07:53;61.20;;;46.37;;
1991;SDS011;997;48.448;8.924;2022-12-18T20:10:19;55.50;;;45.90;;
1991;SDS011;997;48.448;8.924;2022-12-18T20:12:45;49.27;;;39.07;;
1991;SDS011;997;48.448;8.924;2022-12-18T20:15:11;48.47;;;35.17;;
1991;SDS011;997;48.448;8.924;2022-12-18T20:17:37;52.73;;;35.40;;
1991;SDS011;997;48.448;8.924;2022-12-18T20:20:03;59.67;;;46.93;;
1991;SDS011;997;48.448;8.924;2022-12-18T20:22:29;57.87;;;43.87;;
1991;SDS011;997;48.448;8.924;2022-12-18T20:24:55;56.33;;;44.77;;
1991;SDS011;997;48.448;8.924;2022-12-18T20:27:20;73.07;;;51.23;;
1991;SDS011;997;48.448;8.924;2022-12-18T20:29:46;74.87;;;54.77;;
1991;SDS011;997;48.448;8.924;2022-12-18T20:32:12;57.03;;;45.47;;
1991;SDS011;997;48.448;8.924;2022-12-18T20:34:39;51.00;;;42.90;;
1991;SDS011;997;48.448;8.924;2022-12-18T20:37:04;57.57;;;39.80;;
1991;SDS011;997;48.448;8.924;2022-12-18T20:39:30;54.13;;;38.80;;
1991;SDS011;997;48.448;8.924;2022-12-18T20:41:56;52.17;;;35.90;;
1991;SDS011;997;48.448;8.924;2022-12-18T20:44:22;45.57;;;34.77;;
1991;SDS011;997;48.448;8.924;2022-12-18T20:46:48;42.60;;;35.10;;
1991;SDS011;997;48.448;8.924;2022-12-18T20:49:18;50.13;;;35.70;;
1991;SDS011;997;48.448;8.924;2022-12-18T20:51:44;47.77;;;36.40;;
1991;SDS011;997;48.448;8.924;2022-12-18T20:54:10;48.67;;;35.43;;
1991;SDS011;997;48.448;8.924;2022-12-18T20:56:35;40.00;;;29.57;;
1991;SDS011;997;48.448;8.924;2022-12-18T20:59:01;47.47;;;37.53;;
1991;SDS011;997;48.448;8.924;2022-12-18T21:01:27;57.73;;;44.27;;
1991;SDS011;997;48.448;8.924;2022-12-18T21:03:54;52.43;;;39.63;;
1991;SDS011;997;48.448;8.924;2022-12-18T21:06:20;57.40;;;45.77;;
1991;SDS011;997;48.448;8.924;2022-12-18T21:08:47;62.77;;;46.53;;
1991;SDS011;997;48.448;8.924;2022-12-18T21:11:14;49.70;;;38.97;;
1991;SDS011;997;48.448;8.924;2022-12-18T21:13:58;56.40;;;39.00;;
1991;SDS011;997;48.448;8.924;2022-12-18T21:16:24;48.67;;;35.30;;
1991;SDS011;997;48.448;8.924;2022-12-18T21:18:50;51.50;;;35.43;;
1991;SDS011;997;48.448;8.924;2022-12-18T21:21:15;48.53;;;29.07;;
1991;SDS011;997;48.448;8.924;2022-12-18T21:23:41;43.90;;;32.57;;
1991;SDS011;997;48.448;8.924;2022-12-18T21:26:14;40.90;;;30.63;;
1991;SDS011;997;48.448;8.924;2022-12-18T21:28:44;45.30;;;33.47;;
1991;SDS011;997;48.448;8.924;2022-12-18T21:31:11;43.23;;;31.00;;
1991;SDS011;997;48.448;8.924;2022-12-18T21:33:37;45.50;;;32.70;;
1991;SDS011;997;48.448;8.924;2022-12-18T21:36:06;46.73;;;32.57;;
1991;SDS011;997;48.448;8.924;2022-12-18T21:38:32;43.73;;;31.10;;
1991;SDS011;997;48.448;8.924;2022-12-18T21:40:58;45.07;;;28.90;;
1991;SDS011;997;48.448;8.924;2022-12-18T21:43:23;38.47;;;29.67;;
1991;SDS011;997;48.448;8.924;2022-12-18T21:46:07;40.17;;;29.13;;
1991;SDS011;997;48.448;8.924;2022-12-18T21:48:33;36.77;;;29.90;;
1991;SDS011;997;48.448;8.924;2022-12-18T21:51:02;44.60;;;27.60;;
1991;SDS011;997;48.448;8.924;2022-12-18T21:53:28;38.47;;;29.87;;
1991;SDS011;997;48.448;8.924;2022-12-18T21:55:57;47.27;;;32.97;;
1991;SDS011;997;48.448;8.924;2022-12-18T21:58:23;35.70;;;27.00;;
1991;SDS011;997;48.448;8.924;2022-12-18T22:00:49;33.33;;;26.53;;
1991;SDS011;997;48.448;8.924;2022-12-18T22:03:15;38.57;;;27.60;;
1991;SDS011;997;48.448;8.924;2022-12-18T22:05:42;38.37;;;26.00;;
1991;SDS011;997;48.448;8.924;2022-12-18T22:08:08;32.20;;;24.87;;
1991;SDS011;997;48.448;8.924;2022-12-18T22:10:34;34.10;;;25.60;;
1991;SDS011;997;48.448;8.924;2022-12-18T22:13:00;41.10;;;28.77;;
1991;SDS011;997;48.448;8.924;2022-12-18T22:15:26;36.33;;;28.90;;
1991;SDS011;997;48.448;8.924;2022-12-18T22:17:51;38.17;;;27.00;;
1991;SDS011;997;48.448;8.924;2022-12-18T22:20:17;39.50;;;26.30;;
1991;SDS011;997;48.448;8.924;2022-12-18T22:22:43;38.87;;;28.90;;
1991;SDS011;997;48.448;8.924;2022-12-18T22:25:09;41.87;;;32.93;;
1991;SDS011;997;48.448;8.924;2022-12-18T22:27:35;44.27;;;32.27;;
1991;SDS011;997;48.448;8.924;2022-12-18T22:30:02;39.27;;;30.83;;
